Terminal Aerodrome Forecast
Issued by NWS

Home | Current Version | Previous Version | Text Only | Print | Product List | Glossary On
Versions: 1 2 3 4 5 6 7 8 9 10 11 12 13 14 15
000
FTUS43 KDLH 032300
TAFHYR
TAF
KHYR 032333Z 0400/0424 VRB03KT P6SM -RA SCT035 OVC060
      TEMPO 0400/0404 5SM -TSRA BR BKN024 OVC050CB
     FM040600 VRB03KT 1SM BR OVC009
      TEMPO 0408/0412 3/4SM BR OVC004
     FM041400 03004KT 3SM BR BKN011 BKN022
     FM041700 03005KT 5SM BR BKN026
     FM042000 04005KT P6SM BKN035=

USA.gov is the U.S. government's official web portal to all federal, state and local government web resources and services.